createdAt,value
2019-02-14T00:02:08.384Z,-1.14
2019-02-14T00:04:37.460Z,-1.12
2019-02-14T00:07:07.781Z,-0.99
2019-02-14T00:09:36.903Z,-0.95
2019-02-14T00:12:06.133Z,-0.86
2019-02-14T00:14:35.565Z,-0.90
2019-02-14T00:17:05.159Z,-0.86
2019-02-14T00:19:34.905Z,-0.90
2019-02-14T00:22:04.155Z,-0.94
2019-02-14T00:24:35.234Z,-1.05
2019-02-14T00:27:04.382Z,-1.17
2019-02-14T00:29:33.475Z,-1.25
2019-02-14T00:32:02.657Z,-1.15
2019-02-14T00:34:31.770Z,-1.05
2019-02-14T00:37:01.919Z,-1.02
2019-02-14T00:39:31.017Z,-1.03
2019-02-14T00:42:00.147Z,-1.08
2019-02-14T00:44:29.302Z,-1.09
2019-02-14T00:46:58.829Z,-1.07
2019-02-14T00:49:30.207Z,-1.11
2019-02-14T00:51:59.324Z,-1.25
2019-02-14T00:54:30.753Z,-1.12
2019-02-14T00:57:02.298Z,-1.31
2019-02-14T00:59:31.500Z,-1.57
2019-02-14T01:02:04.944Z,-1.38
2019-02-14T01:04:34.103Z,-1.21
2019-02-14T01:07:04.683Z,-1.24
2019-02-14T01:09:33.871Z,-1.24
2019-02-14T01:12:03.383Z,-1.28
2019-02-14T01:14:32.811Z,-1.23
2019-02-14T01:17:01.957Z,-1.34
2019-02-14T01:19:31.147Z,-1.34
2019-02-14T01:22:00.244Z,-1.30
2019-02-14T01:24:29.391Z,-1.74
2019-02-14T01:26:58.507Z,-1.57
2019-02-14T01:29:27.641Z,-1.66
2019-02-14T01:31:56.812Z,-1.66
2019-02-14T01:34:25.998Z,-1.67
2019-02-14T01:36:55.063Z,-1.65
2019-02-14T01:39:24.214Z,-1.68
2019-02-14T01:41:53.313Z,-1.63
2019-02-14T01:44:22.425Z,-1.66
2019-02-14T01:46:51.557Z,-1.86
2019-02-14T01:49:20.656Z,-1.81
2019-02-14T01:51:51.781Z,-1.96
2019-02-14T01:54:21.006Z,-1.98
2019-02-14T01:56:50.039Z,-2.00
2019-02-14T01:59:19.177Z,-1.80
2019-02-14T02:01:50.613Z,-1.79
2019-02-14T02:04:19.749Z,-1.84
2019-02-14T02:06:48.827Z,-1.80
2019-02-14T02:09:18.011Z,-1.72
2019-02-14T02:11:49.362Z,-1.71
2019-02-14T02:14:25.126Z,-1.67
2019-02-14T02:16:55.070Z,-1.72
2019-02-14T02:19:24.299Z,-1.78
2019-02-14T02:21:53.352Z,-1.83
2019-02-14T02:24:24.086Z,-1.86
2019-02-14T02:26:54.861Z,-1.87
2019-02-14T02:29:26.053Z,-1.83
2019-02-14T02:31:55.167Z,-1.86
2019-02-14T02:34:26.597Z,-1.94
2019-02-14T02:36:57.288Z,-1.94
2019-02-14T02:39:26.427Z,-1.95
2019-02-14T02:41:58.041Z,-2.21
2019-02-14T02:44:29.257Z,-2.15
2019-02-14T02:46:59.606Z,-2.16
2019-02-14T02:49:29.482Z,-2.07
2019-02-14T02:52:00.866Z,-2.11
2019-02-14T02:54:29.995Z,-2.03
2019-02-14T02:57:00.311Z,-2.07
2019-02-14T02:59:29.472Z,-2.06
2019-02-14T03:01:58.537Z,-2.12
2019-02-14T03:04:27.687Z,-2.11
2019-02-14T03:06:58.336Z,-2.21
2019-02-14T03:09:27.443Z,-2.30
2019-02-14T03:11:56.635Z,-2.31
2019-02-14T03:14:25.817Z,-2.34
2019-02-14T03:16:54.915Z,-2.30
2019-02-14T03:19:24.080Z,-2.33
2019-02-14T03:21:53.133Z,-2.27
2019-02-14T03:24:22.258Z,-2.29
2019-02-14T03:26:51.395Z,-2.22
2019-02-14T03:29:20.525Z,-2.25
2019-02-14T03:31:49.569Z,-2.30
2019-02-14T03:34:18.721Z,-2.38
2019-02-14T03:36:47.751Z,-2.54
2019-02-14T03:39:16.884Z,-2.70
2019-02-14T03:41:46.002Z,-2.73
2019-02-14T03:44:18.229Z,-2.55
2019-02-14T03:46:49.732Z,-2.44
2019-02-14T03:49:18.846Z,-2.33
2019-02-14T03:51:47.944Z,-2.27
2019-02-14T03:54:18.088Z,-2.32
2019-02-14T03:56:47.195Z,-2.31
2019-02-14T03:59:16.318Z,-2.41
2019-02-14T04:01:47.439Z,-2.44
2019-02-14T04:04:17.660Z,-2.52
2019-02-14T04:06:46.729Z,-2.59
2019-02-14T04:09:15.835Z,-2.54
2019-02-14T04:11:47.057Z,-2.47
2019-02-14T04:14:17.222Z,-2.44
2019-02-14T04:16:46.726Z,-2.39
2019-02-14T04:19:15.913Z,-2.33
2019-02-14T04:21:47.311Z,-2.45
2019-02-14T04:24:16.496Z,-2.42
2019-02-14T04:26:45.658Z,-2.48
2019-02-14T04:29:14.842Z,-2.40
2019-02-14T04:31:44.041Z,-2.51
2019-02-14T04:34:13.318Z,-2.62
2019-02-14T04:36:42.369Z,-2.73
2019-02-14T04:39:11.555Z,-2.71
2019-02-14T04:41:40.628Z,-2.82
2019-02-14T04:44:11.839Z,-2.67
2019-02-14T04:46:40.934Z,-2.72
2019-02-14T04:49:10.104Z,-2.63
2019-02-14T04:51:41.369Z,-2.58
2019-02-14T04:54:10.540Z,-2.52
2019-02-14T04:56:39.686Z,-2.48
2019-02-14T04:59:08.787Z,-2.50
2019-02-14T05:01:39.675Z,-2.48
2019-02-14T05:04:08.804Z,-2.44
2019-02-14T05:06:44.306Z,-2.46
2019-02-14T05:09:12.003Z,-2.53
2019-02-14T05:11:41.140Z,-2.72
2019-02-14T05:14:12.531Z,-2.68
2019-02-14T05:16:42.899Z,-2.70
2019-02-14T05:19:13.147Z,-2.59
2019-02-14T05:21:42.273Z,-2.74
2019-02-14T05:24:11.369Z,-2.97
2019-02-14T05:26:40.480Z,-2.93
2019-02-14T05:29:09.601Z,-2.88
2019-02-14T05:31:39.917Z,-2.75
2019-02-14T05:34:09.085Z,-2.72
2019-02-14T05:36:40.320Z,-3.01
2019-02-14T05:39:09.442Z,-3.03
2019-02-14T05:41:38.559Z,-3.16
2019-02-14T05:44:07.742Z,-2.91
2019-02-14T05:46:36.846Z,-2.97
2019-02-14T05:49:05.996Z,-2.96
2019-02-14T05:51:35.179Z,-2.86
2019-02-14T05:54:06.644Z,-3.13
2019-02-14T05:56:35.847Z,-3.05
2019-02-14T05:59:04.893Z,-3.36
2019-02-14T06:01:34.072Z,-3.20
2019-02-14T06:04:03.146Z,-3.05
2019-02-14T06:06:32.309Z,-3.12
2019-02-14T06:09:01.437Z,-3.12
2019-02-14T06:11:30.613Z,-2.89
2019-02-14T06:13:59.747Z,-3.26
2019-02-14T06:16:30.526Z,-3.17
2019-02-14T06:19:01.618Z,-3.07
2019-02-14T06:21:30.697Z,-3.24
2019-02-14T06:24:01.905Z,-3.15
2019-02-14T06:26:31.100Z,-3.15
2019-02-14T06:29:01.833Z,-2.99
2019-02-14T06:31:30.994Z,-2.93
2019-02-14T06:34:00.066Z,-3.07
2019-02-14T06:36:30.267Z,-3.28
2019-02-14T06:38:59.351Z,-3.36
2019-02-14T06:41:28.519Z,-3.55
2019-02-14T06:43:57.697Z,-3.39
2019-02-14T06:46:26.816Z,-3.24
2019-02-14T06:48:55.966Z,-3.11
2019-02-14T06:51:25.205Z,-3.16
2019-02-14T06:53:54.444Z,-3.36
2019-02-14T06:56:23.626Z,-3.17
2019-02-14T06:58:52.702Z,-3.16
2019-02-14T07:01:23.865Z,-2.92
2019-02-14T07:03:53.017Z,-2.80
2019-02-14T07:06:22.222Z,-2.69
2019-02-14T07:08:54.989Z,-2.66
2019-02-14T07:11:24.167Z,-2.59
2019-02-14T07:13:53.247Z,-2.78
2019-02-14T07:16:23.912Z,-2.85
2019-02-14T07:18:54.064Z,-2.67
2019-02-14T07:21:25.421Z,-2.74
2019-02-14T07:23:54.471Z,-2.64
2019-02-14T07:26:23.634Z,-2.53
2019-02-14T07:28:52.782Z,-2.33
2019-02-14T07:31:24.054Z,-2.22
2019-02-14T07:33:53.118Z,-2.21
2019-02-14T07:36:24.260Z,-2.24
2019-02-14T07:38:53.375Z,-2.33
2019-02-14T07:41:22.546Z,-2.19
2019-02-14T07:43:51.826Z,-2.00
2019-02-14T07:46:22.713Z,-1.84
2019-02-14T07:48:52.202Z,-1.58
2019-02-14T07:51:23.434Z,-1.35
2019-02-14T07:53:55.051Z,-1.11
2019-02-14T07:56:24.265Z,-0.89
2019-02-14T07:58:54.863Z,-0.78
2019-02-14T08:01:26.107Z,-0.56
2019-02-14T08:03:55.920Z,-0.64
2019-02-14T08:06:25.129Z,-1.13
2019-02-14T08:08:58.104Z,-1.28
2019-02-14T08:11:27.202Z,-1.06
2019-02-14T08:13:56.348Z,-1.05
2019-02-14T08:16:27.502Z,-0.63
2019-02-14T08:19:00.045Z,0.04
2019-02-14T08:21:29.401Z,0.09
2019-02-14T08:24:00.427Z,-0.52
2019-02-14T08:26:29.539Z,-0.18
2019-02-14T08:29:00.074Z,-0.04
2019-02-14T08:31:29.255Z,-0.12
2019-02-14T08:33:59.340Z,0.04
2019-02-14T08:36:28.472Z,-0.07
2019-02-14T08:38:59.716Z,0.02
2019-02-14T08:41:30.600Z,-0.01
2019-02-14T08:44:05.219Z,0.11
2019-02-14T08:46:35.172Z,0.97
2019-02-14T08:49:06.489Z,0.78
2019-02-14T08:51:36.707Z,0.91
2019-02-14T08:54:06.591Z,1.27
2019-02-14T08:56:35.753Z,1.29
2019-02-14T08:59:06.422Z,1.49
2019-02-14T09:01:36.575Z,1.28
2019-02-14T09:04:05.651Z,1.53
2019-02-14T09:06:35.745Z,3.20
2019-02-14T09:09:09.128Z,3.32
2019-02-14T09:11:38.240Z,3.09
2019-02-14T09:14:07.349Z,3.72
2019-02-14T09:16:36.707Z,4.22
2019-02-14T09:19:05.925Z,4.48
2019-02-14T09:21:35.436Z,3.50
2019-02-14T09:24:04.640Z,4.56
2019-02-14T09:26:33.791Z,4.61
2019-02-14T09:29:03.022Z,4.63
2019-02-14T09:31:32.110Z,5.28
2019-02-14T09:34:01.235Z,5.83
2019-02-14T09:36:30.336Z,6.12
2019-02-14T09:38:59.428Z,5.13
2019-02-14T09:41:28.509Z,6.20
2019-02-14T09:43:57.710Z,6.28
2019-02-14T09:46:26.817Z,6.66
2019-02-14T09:48:55.963Z,6.35
2019-02-14T09:51:25.064Z,6.53
2019-02-14T09:53:54.237Z,7.03
2019-02-14T09:56:23.463Z,7.39
2019-02-14T09:58:52.555Z,7.55
2019-02-14T10:01:21.676Z,7.69
2019-02-14T10:03:52.332Z,7.69
2019-02-14T10:06:21.428Z,7.47
2019-02-14T10:08:52.255Z,6.77
2019-02-14T10:11:23.395Z,6.72
2019-02-14T10:13:52.598Z,7.23
2019-02-14T10:16:24.026Z,6.80
2019-02-14T10:18:54.116Z,6.69
2019-02-14T10:21:25.560Z,6.77
2019-02-14T10:23:54.635Z,9.52
2019-02-14T10:26:23.787Z,9.16
2019-02-14T10:28:52.907Z,9.42
2019-02-14T10:31:23.748Z,9.24
2019-02-14T10:33:52.933Z,8.81
2019-02-14T10:36:22.017Z,9.02
2019-02-14T10:38:51.142Z,8.30
2019-02-14T10:41:21.895Z,8.44
2019-02-14T10:43:51.062Z,7.80
2019-02-14T10:46:20.202Z,8.46
2019-02-14T10:48:51.279Z,7.70
2019-02-14T10:51:20.402Z,7.91
2019-02-14T10:53:49.471Z,8.79
2019-02-14T10:56:18.591Z,8.99
2019-02-14T10:58:50.175Z,9.02
2019-02-14T11:01:20.395Z,9.38
2019-02-14T11:03:49.459Z,9.45
2019-02-14T11:06:20.711Z,9.56
2019-02-14T11:08:49.828Z,8.97
2019-02-14T11:11:18.987Z,9.11
2019-02-14T11:13:48.107Z,10.00
2019-02-14T11:16:19.036Z,10.00
2019-02-14T11:18:48.246Z,10.88
2019-02-14T11:21:17.411Z,10.35
2019-02-14T11:23:48.733Z,9.87
2019-02-14T11:26:20.113Z,10.43
2019-02-14T11:28:50.460Z,10.73
2019-02-14T11:31:21.895Z,9.71
2019-02-14T11:33:54.031Z,9.72
2019-02-14T11:36:23.205Z,10.63
2019-02-14T11:38:53.536Z,11.15
2019-02-14T11:41:27.284Z,10.39
2019-02-14T11:43:56.399Z,10.00
2019-02-14T11:46:25.581Z,10.37
2019-02-14T11:48:56.250Z,11.52
2019-02-14T11:51:25.383Z,11.64
2019-02-14T11:53:54.496Z,12.07
2019-02-14T11:56:23.666Z,11.51
2019-02-14T11:58:52.794Z,12.15
2019-02-14T12:01:21.860Z,13.11
2019-02-14T12:03:50.926Z,14.22
2019-02-14T12:06:23.840Z,14.04
2019-02-14T12:09:00.146Z,12.79
2019-02-14T12:11:25.085Z,12.57
2019-02-14T12:13:54.213Z,12.67
2019-02-14T12:16:23.335Z,12.76
2019-02-14T12:18:54.938Z,12.31
2019-02-14T12:21:25.159Z,13.27
2019-02-14T12:23:56.685Z,13.31
2019-02-14T12:26:25.892Z,13.36
2019-02-14T12:28:56.581Z,13.44
2019-02-14T12:31:25.695Z,13.25
2019-02-14T12:33:54.919Z,12.50
2019-02-14T12:36:24.061Z,12.88
2019-02-14T12:38:54.027Z,13.00
2019-02-14T12:41:23.134Z,13.36
2019-02-14T12:43:52.306Z,13.62
2019-02-14T12:46:24.067Z,12.97
2019-02-14T12:48:53.259Z,13.82
2019-02-14T12:51:23.493Z,13.53
2019-02-14T12:53:52.566Z,13.27
2019-02-14T12:56:21.683Z,12.98
2019-02-14T12:58:50.900Z,13.30
2019-02-14T13:01:22.052Z,13.88
2019-02-14T13:03:54.647Z,14.05
2019-02-14T13:06:23.711Z,14.23
2019-02-14T13:08:54.415Z,14.19
2019-02-14T13:11:23.495Z,13.89
2019-02-14T13:13:52.711Z,13.69
2019-02-14T13:16:24.029Z,13.51
2019-02-14T13:18:53.783Z,13.43
2019-02-14T13:21:22.917Z,13.75
2019-02-14T13:23:52.103Z,13.47
2019-02-14T13:26:24.077Z,13.34
2019-02-14T13:28:53.171Z,13.04
2019-02-14T13:31:31.350Z,12.95
2019-02-14T13:33:53.240Z,12.81
2019-02-14T13:36:22.360Z,13.03
2019-02-14T13:38:51.596Z,12.58
2019-02-14T13:41:30.671Z,12.79
2019-02-14T13:43:51.504Z,12.49
2019-02-14T13:46:21.297Z,12.54
2019-02-14T13:48:50.575Z,12.71
2019-02-14T13:51:26.165Z,12.40
2019-02-14T13:53:55.491Z,12.61
2019-02-14T13:56:25.264Z,12.81
2019-02-14T13:58:55.669Z,12.68
2019-02-14T14:01:24.749Z,12.70
2019-02-14T14:03:53.929Z,12.60
2019-02-14T14:06:25.397Z,12.73
2019-02-14T14:08:56.023Z,12.86
2019-02-14T14:11:25.192Z,12.77
2019-02-14T14:13:54.379Z,12.70
2019-02-14T14:16:23.513Z,12.66
2019-02-14T14:18:52.644Z,12.47
2019-02-14T14:21:21.737Z,12.61
2019-02-14T14:23:50.862Z,12.55
2019-02-14T14:26:19.903Z,12.41
2019-02-14T14:28:49.032Z,12.31
2019-02-14T14:31:19.284Z,12.31
2019-02-14T14:33:48.383Z,12.30
2019-02-14T14:36:17.515Z,12.20
2019-02-14T14:38:46.577Z,12.12
2019-02-14T14:41:15.700Z,12.02
2019-02-14T14:44:02.278Z,12.02
2019-02-14T14:46:39.412Z,11.96
2019-02-14T14:49:13.749Z,11.88
2019-02-14T14:51:42.828Z,11.90
2019-02-14T14:54:14.354Z,11.73
2019-02-14T14:56:43.483Z,11.67
2019-02-14T14:59:12.573Z,11.76
2019-02-14T15:01:44.008Z,11.65
2019-02-14T15:04:15.433Z,11.66
2019-02-14T15:06:44.643Z,11.81
2019-02-14T15:09:15.586Z,11.92
2019-02-14T15:11:44.856Z,11.93
2019-02-14T15:14:13.991Z,12.00
2019-02-14T15:16:45.083Z,12.00
2019-02-14T15:19:17.908Z,12.00
2019-02-14T15:21:47.042Z,12.25
2019-02-14T15:24:16.224Z,12.19
2019-02-14T15:26:45.411Z,12.23
2019-02-14T15:29:14.615Z,12.34
2019-02-14T15:31:44.398Z,12.16
2019-02-14T15:34:15.872Z,12.08
2019-02-14T15:36:45.033Z,12.16
2019-02-14T15:39:14.372Z,12.04
2019-02-14T15:41:44.283Z,11.97
2019-02-14T15:44:14.521Z,11.92
2019-02-14T15:46:44.059Z,11.88
2019-02-14T15:49:13.307Z,11.93
2019-02-14T15:51:43.795Z,11.87
2019-02-14T15:54:13.224Z,11.72
2019-02-14T15:56:42.299Z,11.63
2019-02-14T15:59:11.400Z,11.53
2019-02-14T16:01:42.722Z,11.35
2019-02-14T16:04:11.314Z,11.24
2019-02-14T16:06:40.471Z,11.00
2019-02-14T16:09:09.564Z,10.77
2019-02-14T16:11:39.768Z,10.74
2019-02-14T16:14:08.911Z,10.63
2019-02-14T16:16:37.983Z,10.28
2019-02-14T16:19:08.727Z,10.08
2019-02-14T16:21:40.213Z,10.13
2019-02-14T16:24:09.260Z,9.89
2019-02-14T16:26:39.637Z,9.72
2019-02-14T16:29:08.754Z,9.55
2019-02-14T16:31:37.920Z,9.38
2019-02-14T16:34:07.007Z,9.11
2019-02-14T16:36:38.366Z,9.03
2019-02-14T16:39:07.478Z,9.06
2019-02-14T16:41:36.655Z,8.70
2019-02-14T16:44:05.796Z,8.46
2019-02-14T16:46:34.901Z,8.15
2019-02-14T16:49:06.484Z,7.92
2019-02-14T16:51:35.579Z,7.81
2019-02-14T16:54:04.639Z,7.61
2019-02-14T16:56:33.672Z,7.41
2019-02-14T16:59:02.770Z,6.57
2019-02-14T17:01:31.932Z,7.16
2019-02-14T17:04:01.068Z,7.03
2019-02-14T17:06:30.122Z,6.77
2019-02-14T17:08:59.224Z,6.68
2019-02-14T17:11:28.289Z,6.62
2019-02-14T17:13:57.392Z,6.47
2019-02-14T17:16:28.197Z,6.32
2019-02-14T17:18:57.398Z,6.24
2019-02-14T17:21:26.493Z,5.91
2019-02-14T17:23:55.677Z,5.83
2019-02-14T17:26:24.712Z,5.70
2019-02-14T17:28:54.805Z,5.63
2019-02-14T17:31:24.171Z,5.48
2019-02-14T17:33:53.324Z,5.39
2019-02-14T17:36:23.655Z,5.35
2019-02-14T17:38:52.903Z,5.28
2019-02-14T17:41:22.200Z,5.16
2019-02-14T17:43:51.354Z,5.10
2019-02-14T17:46:20.452Z,5.06
2019-02-14T17:48:49.878Z,4.90
2019-02-14T17:51:20.071Z,4.84
2019-02-14T17:53:51.570Z,4.70
2019-02-14T17:56:20.619Z,4.55
2019-02-14T17:58:49.693Z,4.54
2019-02-14T18:01:18.777Z,4.45
2019-02-14T18:03:47.842Z,4.30
2019-02-14T18:06:16.980Z,4.19
2019-02-14T18:08:46.071Z,4.12
2019-02-14T18:11:17.417Z,3.97
2019-02-14T18:13:46.594Z,3.84
2019-02-14T18:16:17.844Z,3.74
2019-02-14T18:18:46.983Z,3.79
2019-02-14T18:21:17.931Z,3.83
2019-02-14T18:23:48.068Z,3.78
2019-02-14T18:26:17.153Z,3.77
2019-02-14T18:28:47.483Z,3.48
2019-02-14T18:31:20.351Z,3.61
2019-02-14T18:33:49.442Z,3.48
2019-02-14T18:36:20.669Z,3.43
2019-02-14T18:38:51.060Z,3.30
2019-02-14T18:41:22.493Z,3.57
2019-02-14T18:43:51.676Z,3.42
2019-02-14T18:46:21.714Z,3.33
2019-02-14T18:48:52.418Z,3.22
2019-02-14T18:51:21.501Z,3.11
2019-02-14T18:53:50.560Z,3.01
2019-02-14T18:56:19.639Z,2.93
2019-02-14T18:58:48.749Z,3.11
2019-02-14T19:01:17.840Z,3.10
2019-02-14T19:03:46.970Z,3.08
2019-02-14T19:06:16.262Z,3.04
2019-02-14T19:08:45.406Z,3.12
2019-02-14T19:11:15.462Z,3.09
2019-02-14T19:13:44.653Z,3.14
2019-02-14T19:16:13.913Z,2.91
2019-02-14T19:18:43.066Z,2.72
2019-02-14T19:21:14.257Z,2.55
2019-02-14T19:23:43.390Z,2.44
2019-02-14T19:26:12.513Z,2.33
2019-02-14T19:28:42.567Z,2.24
2019-02-14T19:31:11.976Z,2.17
2019-02-14T19:33:41.075Z,2.20
2019-02-14T19:36:10.221Z,2.13
2019-02-14T19:38:39.390Z,2.11
2019-02-14T19:41:08.526Z,2.09
2019-02-14T19:43:38.796Z,2.07
2019-02-14T19:46:10.153Z,2.05
2019-02-14T19:48:39.202Z,1.85
2019-02-14T19:51:08.308Z,1.71
2019-02-14T19:53:41.222Z,1.69
2019-02-14T19:56:10.307Z,1.69
2019-02-14T19:58:40.468Z,1.73
2019-02-14T20:01:09.624Z,1.72
2019-02-14T20:03:38.700Z,1.75
2019-02-14T20:06:07.806Z,1.64
2019-02-14T20:08:36.933Z,1.62
2019-02-14T20:11:06.110Z,1.54
2019-02-14T20:13:35.138Z,1.46
2019-02-14T20:16:04.956Z,1.45
2019-02-14T20:18:36.475Z,1.47
2019-02-14T20:21:05.705Z,1.41
2019-02-14T20:23:36.028Z,1.37
2019-02-14T20:26:05.327Z,1.34
2019-02-14T20:28:35.733Z,1.34
2019-02-14T20:31:07.415Z,1.33
2019-02-14T20:33:36.615Z,1.30
2019-02-14T20:36:05.843Z,1.23
2019-02-14T20:38:36.566Z,1.09
2019-02-14T20:41:05.863Z,0.98
2019-02-14T20:43:35.186Z,1.07
2019-02-14T20:46:04.311Z,1.03
2019-02-14T20:48:35.231Z,1.04
2019-02-14T20:51:04.303Z,1.50
2019-02-14T20:53:33.438Z,1.30
2019-02-14T20:56:04.534Z,1.23
2019-02-14T20:58:33.609Z,1.06
2019-02-14T21:01:04.306Z,1.01
2019-02-14T21:03:33.490Z,0.99
2019-02-14T21:06:02.545Z,0.96
2019-02-14T21:08:31.678Z,0.94
2019-02-14T21:11:00.824Z,0.85
2019-02-14T21:13:32.039Z,0.80
2019-02-14T21:16:01.123Z,0.79
2019-02-14T21:18:30.260Z,0.80
2019-02-14T21:20:59.365Z,0.78
2019-02-14T21:23:28.472Z,0.78
2019-02-14T21:25:57.579Z,0.81
2019-02-14T21:28:26.737Z,0.84
2019-02-14T21:30:55.812Z,0.82
2019-02-14T21:33:27.060Z,0.81
2019-02-14T21:35:56.108Z,0.80
2019-02-14T21:38:25.214Z,0.72
2019-02-14T21:40:54.508Z,0.61
2019-02-14T21:43:23.598Z,0.47
2019-02-14T21:45:52.716Z,0.46
2019-02-14T21:48:21.856Z,0.48
2019-02-14T21:50:52.580Z,0.53
2019-02-14T21:53:21.694Z,0.47
2019-02-14T21:55:50.828Z,0.43
2019-02-14T21:58:22.284Z,0.34
2019-02-14T22:00:53.216Z,0.31
2019-02-14T22:03:22.458Z,0.26
2019-02-14T22:05:51.591Z,0.21
2019-02-14T22:08:23.607Z,0.21
2019-02-14T22:10:52.718Z,0.17
2019-02-14T22:13:24.742Z,0.22
2019-02-14T22:15:54.081Z,0.20
2019-02-14T22:18:24.256Z,0.00
2019-02-14T22:20:53.490Z,-0.05
2019-02-14T22:23:22.642Z,-0.22
2019-02-14T22:25:51.829Z,-0.15
2019-02-14T22:28:21.054Z,-0.06
2019-02-14T22:30:50.204Z,-0.07
2019-02-14T22:33:19.316Z,-0.07
2019-02-14T22:35:50.738Z,-0.02
2019-02-14T22:38:19.800Z,-0.05
2019-02-14T22:40:48.984Z,-0.04
2019-02-14T22:43:18.230Z,-0.01
2019-02-14T22:45:49.737Z,0.02
2019-02-14T22:48:18.812Z,0.02
2019-02-14T22:50:47.864Z,0.01
2019-02-14T22:53:16.913Z,-0.18
2019-02-14T22:55:46.014Z,-0.19
2019-02-14T22:58:15.070Z,-0.22
2019-02-14T23:00:47.527Z,-0.27
2019-02-14T23:03:16.636Z,-0.19
2019-02-14T23:05:45.958Z,-0.24
2019-02-14T23:08:14.965Z,-0.22
2019-02-14T23:10:44.871Z,-0.18
2019-02-14T23:13:13.958Z,-0.18
2019-02-14T23:15:45.553Z,-0.24
2019-02-14T23:18:14.649Z,-0.30
2019-02-14T23:20:43.754Z,-0.31
2019-02-14T23:23:12.893Z,-0.31
2019-02-14T23:25:42.031Z,-0.35
2019-02-14T23:28:11.146Z,-0.35
2019-02-14T23:30:44.723Z,-0.49
2019-02-14T23:33:14.686Z,-0.57
2019-02-14T23:35:43.796Z,-0.59
2019-02-14T23:38:14.406Z,-0.62
2019-02-14T23:40:43.507Z,-0.65
2019-02-14T23:43:12.662Z,-0.63
2019-02-14T23:45:41.762Z,-0.65
2019-02-14T23:48:10.860Z,-0.62
2019-02-14T23:50:41.503Z,-0.54
2019-02-14T23:53:10.668Z,-0.59
2019-02-14T23:55:42.804Z,-0.52
2019-02-14T23:58:11.910Z,-0.60
